sensor_id;sensor_type;location;lat;lon;timestamp;P1;durP1;ratioP1;P2;durP2;ratioP2
579;SDS011;276;48.392;9.950;2023-04-06T00:00:35;10.17;;;8.30;;
579;SDS011;276;48.392;9.950;2023-04-06T00:03:03;8.30;;;7.60;;
579;SDS011;276;48.392;9.950;2023-04-06T00:05:29;8.70;;;8.10;;
579;SDS011;276;48.392;9.950;2023-04-06T00:08:00;14.57;;;8.57;;
579;SDS011;276;48.392;9.950;2023-04-06T00:10:30;7.90;;;7.30;;
579;SDS011;276;48.392;9.950;2023-04-06T00:12:57;8.30;;;7.70;;
579;SDS011;276;48.392;9.950;2023-04-06T00:15:26;8.03;;;7.30;;
579;SDS011;276;48.392;9.950;2023-04-06T00:17:54;8.87;;;8.07;;
579;SDS011;276;48.392;9.950;2023-04-06T00:20:20;8.07;;;7.30;;
579;SDS011;276;48.392;9.950;2023-04-06T00:22:51;8.97;;;8.17;;
579;SDS011;276;48.392;9.950;2023-04-06T00:25:17;9.33;;;8.57;;
579;SDS011;276;48.392;9.950;2023-04-06T00:27:42;8.33;;;7.60;;
579;SDS011;276;48.392;9.950;2023-04-06T00:30:08;9.83;;;8.73;;
579;SDS011;276;48.392;9.950;2023-04-06T00:32:37;8.70;;;8.00;;
579;SDS011;276;48.392;9.950;2023-04-06T00:35:02;8.83;;;8.10;;
579;SDS011;276;48.392;9.950;2023-04-06T00:37:31;9.33;;;8.53;;
579;SDS011;276;48.392;9.950;2023-04-06T00:39:59;8.87;;;8.07;;
579;SDS011;276;48.392;9.950;2023-04-06T00:42:25;9.43;;;8.70;;
579;SDS011;276;48.392;9.950;2023-04-06T00:44:54;8.37;;;7.67;;
579;SDS011;276;48.392;9.950;2023-04-06T00:47:23;8.67;;;7.80;;
579;SDS011;276;48.392;9.950;2023-04-06T00:49:50;8.60;;;7.90;;
579;SDS011;276;48.392;9.950;2023-04-06T00:52:16;8.33;;;7.53;;
579;SDS011;276;48.392;9.950;2023-04-06T00:54:43;8.33;;;7.53;;
579;SDS011;276;48.392;9.950;2023-04-06T00:57:08;8.97;;;8.23;;
579;SDS011;276;48.392;9.950;2023-04-06T00:59:39;8.50;;;7.80;;
579;SDS011;276;48.392;9.950;2023-04-06T01:02:06;8.10;;;7.30;;
579;SDS011;276;48.392;9.950;2023-04-06T01:04:34;8.90;;;8.00;;
579;SDS011;276;48.392;9.950;2023-04-06T01:07:02;9.20;;;8.43;;
579;SDS011;276;48.392;9.950;2023-04-06T01:09:28;8.47;;;7.70;;
579;SDS011;276;48.392;9.950;2023-04-06T01:11:57;8.87;;;8.00;;
579;SDS011;276;48.392;9.950;2023-04-06T01:14:28;8.20;;;7.50;;
579;SDS011;276;48.392;9.950;2023-04-06T01:16:54;8.97;;;8.27;;
579;SDS011;276;48.392;9.950;2023-04-06T01:19:25;8.87;;;7.97;;
579;SDS011;276;48.392;9.950;2023-04-06T01:21:51;9.77;;;8.87;;
579;SDS011;276;48.392;9.950;2023-04-06T01:24:20;8.47;;;7.67;;
579;SDS011;276;48.392;9.950;2023-04-06T01:26:49;9.80;;;8.93;;
579;SDS011;276;48.392;9.950;2023-04-06T01:29:19;10.00;;;9.10;;
579;SDS011;276;48.392;9.950;2023-04-06T01:31:47;12.50;;;8.70;;
579;SDS011;276;48.392;9.950;2023-04-06T01:34:15;10.63;;;9.67;;
579;SDS011;276;48.392;9.950;2023-04-06T01:36:43;10.93;;;9.93;;
579;SDS011;276;48.392;9.950;2023-04-06T01:39:13;9.73;;;9.00;;
579;SDS011;276;48.392;9.950;2023-04-06T01:41:39;11.23;;;10.17;;
579;SDS011;276;48.392;9.950;2023-04-06T01:44:05;10.83;;;9.83;;
579;SDS011;276;48.392;9.950;2023-04-06T01:46:33;9.97;;;9.07;;
579;SDS011;276;48.392;9.950;2023-04-06T01:49:01;9.50;;;8.60;;
579;SDS011;276;48.392;9.950;2023-04-06T01:51:27;10.47;;;9.47;;
579;SDS011;276;48.392;9.950;2023-04-06T01:53:57;9.83;;;8.93;;
579;SDS011;276;48.392;9.950;2023-04-06T01:56:27;9.17;;;8.37;;
579;SDS011;276;48.392;9.950;2023-04-06T01:58:53;8.30;;;7.60;;
579;SDS011;276;48.392;9.950;2023-04-06T02:01:18;10.07;;;9.27;;
579;SDS011;276;48.392;9.950;2023-04-06T02:03:49;8.97;;;8.17;;
579;SDS011;276;48.392;9.950;2023-04-06T02:06:15;10.80;;;9.80;;
579;SDS011;276;48.392;9.950;2023-04-06T02:08:42;9.63;;;8.73;;
579;SDS011;276;48.392;9.950;2023-04-06T02:11:13;9.37;;;8.50;;
579;SDS011;276;48.392;9.950;2023-04-06T02:13:41;8.67;;;7.77;;
579;SDS011;276;48.392;9.950;2023-04-06T02:16:08;10.73;;;9.47;;
579;SDS011;276;48.392;9.950;2023-04-06T02:18:34;10.20;;;9.30;;
579;SDS011;276;48.392;9.950;2023-04-06T02:21:02;9.73;;;8.93;;
579;SDS011;276;48.392;9.950;2023-04-06T02:23:28;12.80;;;8.90;;
579;SDS011;276;48.392;9.950;2023-04-06T02:25:53;9.17;;;8.30;;
579;SDS011;276;48.392;9.950;2023-04-06T02:28:21;8.40;;;7.73;;
579;SDS011;276;48.392;9.950;2023-04-06T02:30:49;11.33;;;8.80;;
579;SDS011;276;48.392;9.950;2023-04-06T02:33:20;9.93;;;9.03;;
579;SDS011;276;48.392;9.950;2023-04-06T02:35:45;9.43;;;8.50;;
579;SDS011;276;48.392;9.950;2023-04-06T02:38:13;9.70;;;8.73;;
579;SDS011;276;48.392;9.950;2023-04-06T02:40:44;9.57;;;8.57;;
579;SDS011;276;48.392;9.950;2023-04-06T02:43:12;10.57;;;9.50;;
579;SDS011;276;48.392;9.950;2023-04-06T02:45:40;9.70;;;8.67;;
579;SDS011;276;48.392;9.950;2023-04-06T02:48:05;10.67;;;9.67;;
579;SDS011;276;48.392;9.950;2023-04-06T02:50:33;9.97;;;9.17;;
579;SDS011;276;48.392;9.950;2023-04-06T02:53:03;10.20;;;9.17;;
579;SDS011;276;48.392;9.950;2023-04-06T02:55:29;10.07;;;9.10;;
579;SDS011;276;48.392;9.950;2023-04-06T02:57:55;10.50;;;9.60;;
579;SDS011;276;48.392;9.950;2023-04-06T03:00:21;10.93;;;9.83;;
579;SDS011;276;48.392;9.950;2023-04-06T03:02:51;11.87;;;10.87;;
579;SDS011;276;48.392;9.950;2023-04-06T03:05:17;10.10;;;9.13;;
579;SDS011;276;48.392;9.950;2023-04-06T03:07:42;10.93;;;9.00;;
579;SDS011;276;48.392;9.950;2023-04-06T03:10:08;10.33;;;9.33;;
579;SDS011;276;48.392;9.950;2023-04-06T03:12:39;11.43;;;10.23;;
579;SDS011;276;48.392;9.950;2023-04-06T03:15:06;11.57;;;10.57;;
579;SDS011;276;48.392;9.950;2023-04-06T03:17:32;10.30;;;9.40;;
579;SDS011;276;48.392;9.950;2023-04-06T03:20:01;11.57;;;10.53;;
579;SDS011;276;48.392;9.950;2023-04-06T03:22:26;9.83;;;9.03;;
579;SDS011;276;48.392;9.950;2023-04-06T03:24:55;9.37;;;8.50;;
579;SDS011;276;48.392;9.950;2023-04-06T03:27:22;9.73;;;8.90;;
579;SDS011;276;48.392;9.950;2023-04-06T03:29:48;11.40;;;10.50;;
579;SDS011;276;48.392;9.950;2023-04-06T03:32:14;12.23;;;10.70;;
579;SDS011;276;48.392;9.950;2023-04-06T03:34:41;11.20;;;10.20;;
579;SDS011;276;48.392;9.950;2023-04-06T03:37:09;10.70;;;9.60;;
579;SDS011;276;48.392;9.950;2023-04-06T03:39:37;10.57;;;9.67;;
579;SDS011;276;48.392;9.950;2023-04-06T03:42:03;10.93;;;10.00;;
579;SDS011;276;48.392;9.950;2023-04-06T03:44:29;10.20;;;9.20;;
579;SDS011;276;48.392;9.950;2023-04-06T03:46:54;11.33;;;8.87;;
579;SDS011;276;48.392;9.950;2023-04-06T03:49:22;11.43;;;10.00;;
579;SDS011;276;48.392;9.950;2023-04-06T03:51:50;11.03;;;10.13;;
579;SDS011;276;48.392;9.950;2023-04-06T03:54:16;11.83;;;10.40;;
579;SDS011;276;48.392;9.950;2023-04-06T03:56:42;11.57;;;10.37;;
579;SDS011;276;48.392;9.950;2023-04-06T03:59:09;10.67;;;9.60;;
579;SDS011;276;48.392;9.950;2023-04-06T04:01:35;11.40;;;10.20;;
579;SDS011;276;48.392;9.950;2023-04-06T04:04:04;10.70;;;9.70;;
579;SDS011;276;48.392;9.950;2023-04-06T04:06:30;11.90;;;9.70;;
579;SDS011;276;48.392;9.950;2023-04-06T04:08:57;11.17;;;10.17;;
579;SDS011;276;48.392;9.950;2023-04-06T04:11:23;9.80;;;8.57;;
579;SDS011;276;48.392;9.950;2023-04-06T04:13:49;11.17;;;10.17;;
579;SDS011;276;48.392;9.950;2023-04-06T04:16:17;10.30;;;9.47;;
579;SDS011;276;48.392;9.950;2023-04-06T04:18:45;11.37;;;10.27;;
579;SDS011;276;48.392;9.950;2023-04-06T04:21:13;11.20;;;10.30;;
579;SDS011;276;48.392;9.950;2023-04-06T04:23:42;10.07;;;9.17;;
579;SDS011;276;48.392;9.950;2023-04-06T04:26:07;10.20;;;9.40;;
579;SDS011;276;48.392;9.950;2023-04-06T04:28:38;12.60;;;11.27;;
579;SDS011;276;48.392;9.950;2023-04-06T04:31:05;17.60;;;15.13;;
579;SDS011;276;48.392;9.950;2023-04-06T04:33:36;14.50;;;13.17;;
579;SDS011;276;48.392;9.950;2023-04-06T04:36:04;11.40;;;10.30;;
579;SDS011;276;48.392;9.950;2023-04-06T04:38:35;11.20;;;10.20;;
579;SDS011;276;48.392;9.950;2023-04-06T04:41:00;10.67;;;9.67;;
579;SDS011;276;48.392;9.950;2023-04-06T04:43:28;14.00;;;12.70;;
579;SDS011;276;48.392;9.950;2023-04-06T04:45:56;22.47;;;20.03;;
579;SDS011;276;48.392;9.950;2023-04-06T04:48:24;13.33;;;12.03;;
579;SDS011;276;48.392;9.950;2023-04-06T04:50:52;10.93;;;10.03;;
579;SDS011;276;48.392;9.950;2023-04-06T04:53:20;12.17;;;10.70;;
579;SDS011;276;48.392;9.950;2023-04-06T04:55:45;12.03;;;10.83;;
579;SDS011;276;48.392;9.950;2023-04-06T04:58:11;12.50;;;11.50;;
579;SDS011;276;48.392;9.950;2023-04-06T05:00:41;11.80;;;10.70;;
579;SDS011;276;48.392;9.950;2023-04-06T05:03:17;10.67;;;9.83;;
579;SDS011;276;48.392;9.950;2023-04-06T05:05:46;13.63;;;12.33;;
579;SDS011;276;48.392;9.950;2023-04-06T05:08:13;11.03;;;9.57;;
579;SDS011;276;48.392;9.950;2023-04-06T05:10:40;12.10;;;11.10;;
579;SDS011;276;48.392;9.950;2023-04-06T05:13:10;11.53;;;10.53;;
579;SDS011;276;48.392;9.950;2023-04-06T05:15:42;11.83;;;10.73;;
579;SDS011;276;48.392;9.950;2023-04-06T05:18:07;12.83;;;11.13;;
579;SDS011;276;48.392;9.950;2023-04-06T05:20:37;16.37;;;10.77;;
579;SDS011;276;48.392;9.950;2023-04-06T05:23:03;12.17;;;10.80;;
579;SDS011;276;48.392;9.950;2023-04-06T05:25:31;11.73;;;10.73;;
579;SDS011;276;48.392;9.950;2023-04-06T05:27:57;12.40;;;11.20;;
579;SDS011;276;48.392;9.950;2023-04-06T05:30:26;11.67;;;10.57;;
579;SDS011;276;48.392;9.950;2023-04-06T05:32:53;12.87;;;11.53;;
579;SDS011;276;48.392;9.950;2023-04-06T05:35:22;13.03;;;11.87;;
579;SDS011;276;48.392;9.950;2023-04-06T05:37:47;12.07;;;10.97;;
579;SDS011;276;48.392;9.950;2023-04-06T05:40:15;12.57;;;11.33;;
579;SDS011;276;48.392;9.950;2023-04-06T05:42:43;12.80;;;11.70;;
579;SDS011;276;48.392;9.950;2023-04-06T05:45:11;12.80;;;11.60;;
579;SDS011;276;48.392;9.950;2023-04-06T05:47:41;12.37;;;11.37;;
579;SDS011;276;48.392;9.950;2023-04-06T05:50:14;14.20;;;12.80;;
579;SDS011;276;48.392;9.950;2023-04-06T05:52:40;13.67;;;12.33;;
579;SDS011;276;48.392;9.950;2023-04-06T05:55:08;15.33;;;13.67;;
579;SDS011;276;48.392;9.950;2023-04-06T05:57:34;14.57;;;13.23;;
579;SDS011;276;48.392;9.950;2023-04-06T06:00:04;17.00;;;12.77;;
579;SDS011;276;48.392;9.950;2023-04-06T06:02:34;12.97;;;11.73;;
579;SDS011;276;48.392;9.950;2023-04-06T06:05:06;14.87;;;13.53;;
579;SDS011;276;48.392;9.950;2023-04-06T06:07:36;14.43;;;13.10;;
579;SDS011;276;48.392;9.950;2023-04-06T06:10:01;15.13;;;13.90;;
579;SDS011;276;48.392;9.950;2023-04-06T06:12:30;14.57;;;13.30;;
579;SDS011;276;48.392;9.950;2023-04-06T06:14:58;14.40;;;13.17;;
579;SDS011;276;48.392;9.950;2023-04-06T06:17:23;15.20;;;13.20;;
579;SDS011;276;48.392;9.950;2023-04-06T06:19:49;15.10;;;13.70;;
579;SDS011;276;48.392;9.950;2023-04-06T06:22:19;17.53;;;14.83;;
579;SDS011;276;48.392;9.950;2023-04-06T06:24:45;18.70;;;16.27;;
579;SDS011;276;48.392;9.950;2023-04-06T06:27:14;21.80;;;18.80;;
579;SDS011;276;48.392;9.950;2023-04-06T06:29:43;20.07;;;16.30;;
579;SDS011;276;48.392;9.950;2023-04-06T06:32:08;16.70;;;15.03;;
579;SDS011;276;48.392;9.950;2023-04-06T06:34:35;15.07;;;13.60;;
579;SDS011;276;48.392;9.950;2023-04-06T06:37:00;15.07;;;13.67;;
579;SDS011;276;48.392;9.950;2023-04-06T06:39:27;14.07;;;12.93;;
579;SDS011;276;48.392;9.950;2023-04-06T06:41:52;14.20;;;12.90;;
579;SDS011;276;48.392;9.950;2023-04-06T06:44:20;13.90;;;12.70;;
579;SDS011;276;48.392;9.950;2023-04-06T06:46:48;14.40;;;12.60;;
579;SDS011;276;48.392;9.950;2023-04-06T06:49:13;13.57;;;12.20;;
579;SDS011;276;48.392;9.950;2023-04-06T06:51:39;15.53;;;14.13;;
579;SDS011;276;48.392;9.950;2023-04-06T06:54:05;14.67;;;13.17;;
579;SDS011;276;48.392;9.950;2023-04-06T06:56:38;13.43;;;12.10;;
579;SDS011;276;48.392;9.950;2023-04-06T06:59:04;13.77;;;12.53;;
579;SDS011;276;48.392;9.950;2023-04-06T07:01:32;15.07;;;13.70;;
579;SDS011;276;48.392;9.950;2023-04-06T07:03:59;16.63;;;14.67;;
579;SDS011;276;48.392;9.950;2023-04-06T07:06:24;15.67;;;13.97;;
579;SDS011;276;48.392;9.950;2023-04-06T07:08:55;16.17;;;14.57;;
579;SDS011;276;48.392;9.950;2023-04-06T07:11:23;15.80;;;13.17;;
579;SDS011;276;48.392;9.950;2023-04-06T07:13:48;16.07;;;14.40;;
579;SDS011;276;48.392;9.950;2023-04-06T07:16:14;16.23;;;14.53;;
579;SDS011;276;48.392;9.950;2023-04-06T07:18:42;18.40;;;16.50;;
579;SDS011;276;48.392;9.950;2023-04-06T07:21:11;15.33;;;13.83;;
579;SDS011;276;48.392;9.950;2023-04-06T07:23:37;17.10;;;15.37;;
579;SDS011;276;48.392;9.950;2023-04-06T07:26:05;19.93;;;16.37;;
579;SDS011;276;48.392;9.950;2023-04-06T07:28:35;18.50;;;16.50;;
579;SDS011;276;48.392;9.950;2023-04-06T07:31:01;19.70;;;17.67;;
579;SDS011;276;48.392;9.950;2023-04-06T07:33:34;17.40;;;15.70;;
579;SDS011;276;48.392;9.950;2023-04-06T07:36:04;16.50;;;14.90;;
579;SDS011;276;48.392;9.950;2023-04-06T07:38:32;16.07;;;14.50;;
579;SDS011;276;48.392;9.950;2023-04-06T07:41:00;15.10;;;13.57;;
579;SDS011;276;48.392;9.950;2023-04-06T07:43:31;16.60;;;14.97;;
579;SDS011;276;48.392;9.950;2023-04-06T07:45:59;15.47;;;14.10;;
579;SDS011;276;48.392;9.950;2023-04-06T07:48:25;15.77;;;14.10;;
579;SDS011;276;48.392;9.950;2023-04-06T07:50:51;16.87;;;15.37;;
579;SDS011;276;48.392;9.950;2023-04-06T07:53:17;15.47;;;14.07;;
579;SDS011;276;48.392;9.950;2023-04-06T07:55:45;14.70;;;13.20;;
579;SDS011;276;48.392;9.950;2023-04-06T07:58:13;15.67;;;14.00;;
579;SDS011;276;48.392;9.950;2023-04-06T08:00:41;14.80;;;13.47;;
579;SDS011;276;48.392;9.950;2023-04-06T08:03:09;14.97;;;13.57;;
579;SDS011;276;48.392;9.950;2023-04-06T08:05:35;15.83;;;14.27;;
579;SDS011;276;48.392;9.950;2023-04-06T08:08:00;15.33;;;14.03;;
579;SDS011;276;48.392;9.950;2023-04-06T08:10:30;15.03;;;13.73;;
579;SDS011;276;48.392;9.950;2023-04-06T08:12:59;15.50;;;14.10;;
579;SDS011;276;48.392;9.950;2023-04-06T08:15:25;16.07;;;14.67;;
579;SDS011;276;48.392;9.950;2023-04-06T08:17:51;17.77;;;16.07;;
579;SDS011;276;48.392;9.950;2023-04-06T08:20:17;15.30;;;13.90;;
579;SDS011;276;48.392;9.950;2023-04-06T08:22:42;14.10;;;13.00;;
579;SDS011;276;48.392;9.950;2023-04-06T08:25:10;15.77;;;14.47;;
579;SDS011;276;48.392;9.950;2023-04-06T08:27:38;14.53;;;13.23;;
579;SDS011;276;48.392;9.950;2023-04-06T08:30:07;14.80;;;13.27;;
579;SDS011;276;48.392;9.950;2023-04-06T08:32:39;16.93;;;15.47;;
579;SDS011;276;48.392;9.950;2023-04-06T08:35:06;14.20;;;12.97;;
579;SDS011;276;48.392;9.950;2023-04-06T08:37:32;15.37;;;13.97;;
579;SDS011;276;48.392;9.950;2023-04-06T08:40:00;14.73;;;13.20;;
579;SDS011;276;48.392;9.950;2023-04-06T08:42:28;14.97;;;13.47;;
579;SDS011;276;48.392;9.950;2023-04-06T08:44:57;15.17;;;13.83;;
579;SDS011;276;48.392;9.950;2023-04-06T08:47:25;13.40;;;12.10;;
579;SDS011;276;48.392;9.950;2023-04-06T08:49:52;17.53;;;14.63;;
579;SDS011;276;48.392;9.950;2023-04-06T08:52:19;14.90;;;13.00;;
579;SDS011;276;48.392;9.950;2023-04-06T08:54:45;13.67;;;12.53;;
579;SDS011;276;48.392;9.950;2023-04-06T08:57:19;15.73;;;14.33;;
579;SDS011;276;48.392;9.950;2023-04-06T08:59:48;14.43;;;13.07;;
579;SDS011;276;48.392;9.950;2023-04-06T09:02:22;15.30;;;13.80;;
579;SDS011;276;48.392;9.950;2023-04-06T09:04:52;14.40;;;13.00;;
579;SDS011;276;48.392;9.950;2023-04-06T09:07:23;19.17;;;12.47;;
579;SDS011;276;48.392;9.950;2023-04-06T09:09:51;14.13;;;12.67;;
579;SDS011;276;48.392;9.950;2023-04-06T09:12:25;13.97;;;12.67;;
579;SDS011;276;48.392;9.950;2023-04-06T09:14:51;14.00;;;12.80;;
579;SDS011;276;48.392;9.950;2023-04-06T09:17:30;14.53;;;13.10;;
579;SDS011;276;48.392;9.950;2023-04-06T09:20:02;16.03;;;13.10;;
579;SDS011;276;48.392;9.950;2023-04-06T09:22:36;13.57;;;12.17;;
579;SDS011;276;48.392;9.950;2023-04-06T09:25:02;14.23;;;12.83;;
579;SDS011;276;48.392;9.950;2023-04-06T09:27:32;14.80;;;13.33;;
579;SDS011;276;48.392;9.950;2023-04-06T09:30:02;12.50;;;11.40;;
579;SDS011;276;48.392;9.950;2023-04-06T09:32:43;14.43;;;12.90;;
579;SDS011;276;48.392;9.950;2023-04-06T09:35:18;18.80;;;13.00;;
579;SDS011;276;48.392;9.950;2023-04-06T09:37:48;13.20;;;12.00;;
579;SDS011;276;48.392;9.950;2023-04-06T09:40:14;13.37;;;12.27;;
579;SDS011;276;48.392;9.950;2023-04-06T09:42:42;13.60;;;12.20;;
579;SDS011;276;48.392;9.950;2023-04-06T09:45:13;14.57;;;13.07;;
579;SDS011;276;48.392;9.950;2023-04-06T09:47:44;13.90;;;12.33;;
579;SDS011;276;48.392;9.950;2023-04-06T09:50:12;13.87;;;12.33;;
579;SDS011;276;48.392;9.950;2023-04-06T09:52:42;12.40;;;11.30;;
579;SDS011;276;48.392;9.950;2023-04-06T09:55:34;12.30;;;10.73;;
579;SDS011;276;48.392;9.950;2023-04-06T09:58:12;13.27;;;11.97;;
579;SDS011;276;48.392;9.950;2023-04-06T10:05:56;14.43;;;13.03;;
579;SDS011;276;48.392;9.950;2023-04-06T10:08:31;12.83;;;11.73;;
579;SDS011;276;48.392;9.950;2023-04-06T10:11:07;11.80;;;10.80;;
579;SDS011;276;48.392;9.950;2023-04-06T10:13:37;11.30;;;10.13;;
579;SDS011;276;48.392;9.950;2023-04-06T10:16:02;11.53;;;10.53;;
579;SDS011;276;48.392;9.950;2023-04-06T10:18:37;10.90;;;10.00;;
579;SDS011;276;48.392;9.950;2023-04-06T10:21:10;12.90;;;11.70;;
579;SDS011;276;48.392;9.950;2023-04-06T10:26:16;13.10;;;11.77;;
579;SDS011;276;48.392;9.950;2023-04-06T10:28:45;11.93;;;10.77;;
579;SDS011;276;48.392;9.950;2023-04-06T10:31:11;13.37;;;12.07;;
579;SDS011;276;48.392;9.950;2023-04-06T10:33:40;12.00;;;10.90;;
579;SDS011;276;48.392;9.950;2023-04-06T10:38:37;10.70;;;9.70;;
579;SDS011;276;48.392;9.950;2023-04-06T10:41:08;11.70;;;10.50;;
579;SDS011;276;48.392;9.950;2023-04-06T10:43:36;11.83;;;10.73;;
579;SDS011;276;48.392;9.950;2023-04-06T10:46:03;10.63;;;9.63;;
579;SDS011;276;48.392;9.950;2023-04-06T10:48:36;10.93;;;9.87;;
579;SDS011;276;48.392;9.950;2023-04-06T10:51:12;9.63;;;8.77;;
579;SDS011;276;48.392;9.950;2023-04-06T10:53:43;11.40;;;10.40;;
579;SDS011;276;48.392;9.950;2023-04-06T10:56:13;12.07;;;11.07;;
579;SDS011;276;48.392;9.950;2023-04-06T10:58:45;10.90;;;9.80;;
579;SDS011;276;48.392;9.950;2023-04-06T11:01:18;11.47;;;10.40;;
579;SDS011;276;48.392;9.950;2023-04-06T11:03:45;9.53;;;8.73;;
579;SDS011;276;48.392;9.950;2023-04-06T11:08:48;11.13;;;8.30;;
579;SDS011;276;48.392;9.950;2023-04-06T11:11:17;9.80;;;8.90;;
579;SDS011;276;48.392;9.950;2023-04-06T11:13:46;10.93;;;10.07;;
579;SDS011;276;48.392;9.950;2023-04-06T11:16:15;10.93;;;9.83;;
579;SDS011;276;48.392;9.950;2023-04-06T11:18:48;10.60;;;9.70;;
579;SDS011;276;48.392;9.950;2023-04-06T11:21:17;9.93;;;9.03;;
579;SDS011;276;48.392;9.950;2023-04-06T11:24:07;10.30;;;9.37;;
579;SDS011;276;48.392;9.950;2023-04-06T11:26:36;10.23;;;9.20;;
579;SDS011;276;48.392;9.950;2023-04-06T11:29:03;10.43;;;9.60;;
579;SDS011;276;48.392;9.950;2023-04-06T11:31:29;9.43;;;8.53;;
579;SDS011;276;48.392;9.950;2023-04-06T11:34:02;7.70;;;7.00;;
579;SDS011;276;48.392;9.950;2023-04-06T11:36:39;9.57;;;8.13;;
579;SDS011;276;48.392;9.950;2023-04-06T11:39:06;9.70;;;8.93;;
579;SDS011;276;48.392;9.950;2023-04-06T11:41:33;9.20;;;8.33;;
579;SDS011;276;48.392;9.950;2023-04-06T11:44:00;10.93;;;9.93;;
579;SDS011;276;48.392;9.950;2023-04-06T11:46:30;9.73;;;8.83;;
579;SDS011;276;48.392;9.950;2023-04-06T11:48:59;9.80;;;8.90;;
579;SDS011;276;48.392;9.950;2023-04-06T11:51:25;8.00;;;7.40;;
579;SDS011;276;48.392;9.950;2023-04-06T11:53:54;8.00;;;7.30;;
579;SDS011;276;48.392;9.950;2023-04-06T11:56:28;10.90;;;9.80;;
579;SDS011;276;48.392;9.950;2023-04-06T11:58:55;8.90;;;8.17;;
579;SDS011;276;48.392;9.950;2023-04-06T12:01:21;8.23;;;7.53;;
579;SDS011;276;48.392;9.950;2023-04-06T12:03:48;10.70;;;9.70;;
579;SDS011;276;48.392;9.950;2023-04-06T12:06:14;8.93;;;8.23;;
579;SDS011;276;48.392;9.950;2023-04-06T12:08:43;9.67;;;8.90;;
579;SDS011;276;48.392;9.950;2023-04-06T12:11:09;8.83;;;7.57;;
579;SDS011;276;48.392;9.950;2023-04-06T12:13:40;9.30;;;8.50;;
579;SDS011;276;48.392;9.950;2023-04-06T12:16:10;7.40;;;6.90;;
579;SDS011;276;48.392;9.950;2023-04-06T12:18:38;9.20;;;8.37;;
579;SDS011;276;48.392;9.950;2023-04-06T12:21:04;11.00;;;9.90;;
579;SDS011;276;48.392;9.950;2023-04-06T12:23:32;8.57;;;7.93;;
579;SDS011;276;48.392;9.950;2023-04-06T12:25:57;8.80;;;8.10;;
579;SDS011;276;48.392;9.950;2023-04-06T12:28:23;8.87;;;8.20;;
579;SDS011;276;48.392;9.950;2023-04-06T12:30:51;8.83;;;8.20;;
579;SDS011;276;48.392;9.950;2023-04-06T12:33:19;9.53;;;8.83;;
579;SDS011;276;48.392;9.950;2023-04-06T12:35:46;10.13;;;9.33;;
579;SDS011;276;48.392;9.950;2023-04-06T12:38:13;9.30;;;8.60;;
579;SDS011;276;48.392;9.950;2023-04-06T12:40:42;9.47;;;8.67;;
579;SDS011;276;48.392;9.950;2023-04-06T12:43:07;8.20;;;6.93;;
579;SDS011;276;48.392;9.950;2023-04-06T12:45:41;9.60;;;8.80;;
579;SDS011;276;48.392;9.950;2023-04-06T12:48:08;7.73;;;7.23;;
579;SDS011;276;48.392;9.950;2023-04-06T12:50:39;8.27;;;7.67;;
579;SDS011;276;48.392;9.950;2023-04-06T12:53:11;9.47;;;8.73;;
579;SDS011;276;48.392;9.950;2023-04-06T12:55:37;9.53;;;8.77;;
579;SDS011;276;48.392;9.950;2023-04-06T12:58:03;7.43;;;6.83;;
579;SDS011;276;48.392;9.950;2023-04-06T13:00:31;8.27;;;7.60;;
579;SDS011;276;48.392;9.950;2023-04-06T13:02:59;7.60;;;7.00;;
579;SDS011;276;48.392;9.950;2023-04-06T13:05:25;7.63;;;6.97;;
579;SDS011;276;48.392;9.950;2023-04-06T13:07:51;9.77;;;8.90;;
579;SDS011;276;48.392;9.950;2023-04-06T13:10:19;9.60;;;8.73;;
579;SDS011;276;48.392;9.950;2023-04-06T13:12:44;7.80;;;7.00;;
579;SDS011;276;48.392;9.950;2023-04-06T13:15:12;9.50;;;8.67;;
579;SDS011;276;48.392;9.950;2023-04-06T13:17:40;7.50;;;6.80;;
579;SDS011;276;48.392;9.950;2023-04-06T13:20:08;7.83;;;6.93;;
579;SDS011;276;48.392;9.950;2023-04-06T13:22:37;6.23;;;5.80;;
579;SDS011;276;48.392;9.950;2023-04-06T13:25:07;6.20;;;5.70;;
579;SDS011;276;48.392;9.950;2023-04-06T13:27:37;8.03;;;7.30;;
579;SDS011;276;48.392;9.950;2023-04-06T13:30:05;7.27;;;6.53;;
579;SDS011;276;48.392;9.950;2023-04-06T13:32:32;7.77;;;7.03;;
579;SDS011;276;48.392;9.950;2023-04-06T13:35:02;8.90;;;8.10;;
579;SDS011;276;48.392;9.950;2023-04-06T13:37:31;7.53;;;7.03;;
579;SDS011;276;48.392;9.950;2023-04-06T13:40:00;8.00;;;7.30;;
579;SDS011;276;48.392;9.950;2023-04-06T13:42:32;8.07;;;7.47;;
579;SDS011;276;48.392;9.950;2023-04-06T13:45:00;9.20;;;8.40;;
579;SDS011;276;48.392;9.950;2023-04-06T13:47:26;7.67;;;7.07;;
579;SDS011;276;48.392;9.950;2023-04-06T13:49:55;6.57;;;6.07;;
579;SDS011;276;48.392;9.950;2023-04-06T13:52:21;5.97;;;5.57;;
579;SDS011;276;48.392;9.950;2023-04-06T13:54:49;6.63;;;6.13;;
579;SDS011;276;48.392;9.950;2023-04-06T13:57:15;8.67;;;7.97;;
579;SDS011;276;48.392;9.950;2023-04-06T13:59:41;7.40;;;6.70;;
579;SDS011;276;48.392;9.950;2023-04-06T14:02:07;7.70;;;7.03;;
579;SDS011;276;48.392;9.950;2023-04-06T14:04:38;6.97;;;6.37;;
579;SDS011;276;48.392;9.950;2023-04-06T14:07:06;5.87;;;5.47;;
579;SDS011;276;48.392;9.950;2023-04-06T14:09:33;9.33;;;8.60;;
579;SDS011;276;48.392;9.950;2023-04-06T14:12:02;8.03;;;7.43;;
579;SDS011;276;48.392;9.950;2023-04-06T14:14:33;7.27;;;6.57;;
579;SDS011;276;48.392;9.950;2023-04-06T14:17:03;7.20;;;6.70;;
579;SDS011;276;48.392;9.950;2023-04-06T14:19:28;8.33;;;7.73;;
579;SDS011;276;48.392;9.950;2023-04-06T14:21:59;7.00;;;6.47;;
579;SDS011;276;48.392;9.950;2023-04-06T14:24:25;5.87;;;5.47;;
579;SDS011;276;48.392;9.950;2023-04-06T14:26:55;6.77;;;6.23;;
579;SDS011;276;48.392;9.950;2023-04-06T14:29:21;8.83;;;8.13;;
579;SDS011;276;48.392;9.950;2023-04-06T14:31:49;8.20;;;7.50;;
579;SDS011;276;48.392;9.950;2023-04-06T14:34:24;8.00;;;7.40;;
579;SDS011;276;48.392;9.950;2023-04-06T14:36:52;9.27;;;8.57;;
579;SDS011;276;48.392;9.950;2023-04-06T14:39:20;7.57;;;6.87;;
579;SDS011;276;48.392;9.950;2023-04-06T14:41:46;9.30;;;8.60;;
579;SDS011;276;48.392;9.950;2023-04-06T14:44:12;8.87;;;8.07;;
579;SDS011;276;48.392;9.950;2023-04-06T14:46:41;8.13;;;7.53;;
579;SDS011;276;48.392;9.950;2023-04-06T14:49:09;6.57;;;6.07;;
579;SDS011;276;48.392;9.950;2023-04-06T14:51:37;7.70;;;7.00;;
579;SDS011;276;48.392;9.950;2023-04-06T14:54:05;7.10;;;6.50;;
579;SDS011;276;48.392;9.950;2023-04-06T14:56:33;5.97;;;5.50;;
579;SDS011;276;48.392;9.950;2023-04-06T14:59:03;5.60;;;5.10;;
579;SDS011;276;48.392;9.950;2023-04-06T15:01:33;6.70;;;6.20;;
579;SDS011;276;48.392;9.950;2023-04-06T15:04:02;5.57;;;5.17;;
579;SDS011;276;48.392;9.950;2023-04-06T15:06:30;9.50;;;8.67;;
579;SDS011;276;48.392;9.950;2023-04-06T15:08:55;9.60;;;8.43;;
579;SDS011;276;48.392;9.950;2023-04-06T15:11:24;7.63;;;6.80;;
579;SDS011;276;48.392;9.950;2023-04-06T15:13:52;9.40;;;8.60;;
579;SDS011;276;48.392;9.950;2023-04-06T15:16:17;8.23;;;7.53;;
579;SDS011;276;48.392;9.950;2023-04-06T15:18:48;7.43;;;6.93;;
579;SDS011;276;48.392;9.950;2023-04-06T15:21:13;6.50;;;6.00;;
579;SDS011;276;48.392;9.950;2023-04-06T15:23:39;5.37;;;4.97;;
579;SDS011;276;48.392;9.950;2023-04-06T15:26:07;6.50;;;6.00;;
579;SDS011;276;48.392;9.950;2023-04-06T15:28:33;7.20;;;6.60;;
579;SDS011;276;48.392;9.950;2023-04-06T15:30:58;6.17;;;5.77;;
579;SDS011;276;48.392;9.950;2023-04-06T15:33:30;5.73;;;5.23;;
579;SDS011;276;48.392;9.950;2023-04-06T15:35:56;7.30;;;6.60;;
579;SDS011;276;48.392;9.950;2023-04-06T15:38:21;7.97;;;7.27;;
579;SDS011;276;48.392;9.950;2023-04-06T15:40:53;7.93;;;7.33;;
579;SDS011;276;48.392;9.950;2023-04-06T15:43:24;11.10;;;10.10;;
579;SDS011;276;48.392;9.950;2023-04-06T15:45:49;8.00;;;7.40;;
579;SDS011;276;48.392;9.950;2023-04-06T15:48:17;8.77;;;8.03;;